Portada
METAR-TAF:

METAR-TAF

Aeroports :

Bullsbrook, Austràlia

latitud: 31-40S, longitud: 116-01E, altitud: 45 m

Observació

L'informe es va fer fa 42 minuts, a les 16:00 UTC
Vent 2 kt del Sud/Sud-Est
Temperatura 10°C
Humitat 87%
Pressió 1022 hPa
Visibilitat 10 km o més
Núvols disperses a una alçada de 3500 ft
Cel ennuvolat a una alçada de 4300 ft
Cel cobert a una alçada de 5700 ft
xàfecs de pluja

METAR: YPEA 191600Z AUTO 16002KT 9999 SHRA SCT035 BKN043 OVC057 10/08 Q1022

Hora: 00:42 (16:42 UTC)

Pronòstic

L'informe es va fer fa 43 minuts, a les 15:59 UTC
Pronòstic vàlid del 19 a les 16 UTC al 20 a les 06 UTC
Vent 7 kt del Sud
Visibilitat 10 km o més
Cel ennuvolat a una alçada de 3500 ft
A partir de les 20 a les 0500 UTC
Vent 25 kt del Sud-Oest amb ràfegues de 40 kt
Visibilitat: 3000 m
Cel ennuvolat a una alçada de 1500 ft
xàfecs de pluja, Calamarsa petit o neu granulada

TAF: YPEA 191559Z 1916/2006 17007KT 9999 BKN035 FM200500 19008KT CAVOK INTER 1916/1917 23025G40KT 3000 SHRAGS BKN015

Observacions i pronòstics meteorològics de més de 4000 aeroports (METAR i TAF).

Les estacions disponibles són els punts grocs i vermells al mapa.

Posi el ratolí al punt desitjat per veure el nom de l'estació.

Feu clic per veure les observacions i els pronòstics meteorològics.

Per canviar el mapa: feu clic els botons verds amb una creu de color negre per apropar; al botó verd amb un guió per allunyar la imatge; o en les fletxes verdes per a mapes adjacents.


METAR-TAF: